sensor_id;sensor_type;location;lat;lon;timestamp;temperature;humidity
12971;DHT22;6550;48.650;8.774;2023-11-19T00:00:10;9.50;99.90
12971;DHT22;6550;48.650;8.774;2023-11-19T00:02:41;9.30;99.90
12971;DHT22;6550;48.650;8.774;2023-11-19T00:05:13;9.30;99.90
12971;DHT22;6550;48.650;8.774;2023-11-19T00:07:43;9.80;99.90
12971;DHT22;6550;48.650;8.774;2023-11-19T00:10:14;9.60;99.90
12971;DHT22;6550;48.650;8.774;2023-11-19T00:12:45;9.30;99.90
12971;DHT22;6550;48.650;8.774;2023-11-19T00:15:16;9.60;99.90
12971;DHT22;6550;48.650;8.774;2023-11-19T00:17:46;10.40;99.90
12971;DHT22;6550;48.650;8.774;2023-11-19T00:20:15;9.40;99.90
12971;DHT22;6550;48.650;8.774;2023-11-19T00:22:44;9.30;99.90
12971;DHT22;6550;48.650;8.774;2023-11-19T00:25:17;10.20;99.90
12971;DHT22;6550;48.650;8.774;2023-11-19T00:27:47;9.40;99.90
12971;DHT22;6550;48.650;8.774;2023-11-19T00:30:17;9.80;99.90
12971;DHT22;6550;48.650;8.774;2023-11-19T00:32:46;9.40;99.90
12971;DHT22;6550;48.650;8.774;2023-11-19T00:35:13;9.20;99.90
12971;DHT22;6550;48.650;8.774;2023-11-19T00:37:42;9.40;99.90
12971;DHT22;6550;48.650;8.774;2023-11-19T00:40:10;9.40;99.90
12971;DHT22;6550;48.650;8.774;2023-11-19T00:42:40;9.40;99.90
12971;DHT22;6550;48.650;8.774;2023-11-19T00:45:07;9.40;99.90
12971;DHT22;6550;48.650;8.774;2023-11-19T00:47:38;9.40;99.90
12971;DHT22;6550;48.650;8.774;2023-11-19T00:50:06;9.50;99.90
12971;DHT22;6550;48.650;8.774;2023-11-19T00:52:36;9.50;99.90
12971;DHT22;6550;48.650;8.774;2023-11-19T00:55:04;9.50;99.90
12971;DHT22;6550;48.650;8.774;2023-11-19T00:57:31;9.50;99.90
12971;DHT22;6550;48.650;8.774;2023-11-19T01:00:05;10.40;99.90
12971;DHT22;6550;48.650;8.774;2023-11-19T01:02:50;9.60;99.90
12971;DHT22;6550;48.650;8.774;2023-11-19T01:05:19;9.50;99.90
12971;DHT22;6550;48.650;8.774;2023-11-19T01:07:52;9.30;99.90
12971;DHT22;6550;48.650;8.774;2023-11-19T01:10:24;10.00;99.90
12971;DHT22;6550;48.650;8.774;2023-11-19T01:12:52;9.40;99.90
12971;DHT22;6550;48.650;8.774;2023-11-19T01:15:19;9.50;99.90
12971;DHT22;6550;48.650;8.774;2023-11-19T01:17:46;9.50;99.90
12971;DHT22;6550;48.650;8.774;2023-11-19T01:20:18;9.50;99.90
12971;DHT22;6550;48.650;8.774;2023-11-19T01:22:45;9.70;99.90
12971;DHT22;6550;48.650;8.774;2023-11-19T01:25:11;10.80;99.90
12971;DHT22;6550;48.650;8.774;2023-11-19T01:27:38;9.50;99.90
12971;DHT22;6550;48.650;8.774;2023-11-19T01:30:08;9.40;99.90
12971;DHT22;6550;48.650;8.774;2023-11-19T01:32:42;9.50;99.90
12971;DHT22;6550;48.650;8.774;2023-11-19T01:35:09;10.20;99.90
12971;DHT22;6550;48.650;8.774;2023-11-19T01:37:38;10.20;99.90
12971;DHT22;6550;48.650;8.774;2023-11-19T01:40:05;9.50;99.90
12971;DHT22;6550;48.650;8.774;2023-11-19T01:42:39;9.60;99.90
12971;DHT22;6550;48.650;8.774;2023-11-19T01:45:09;9.60;99.90
12971;DHT22;6550;48.650;8.774;2023-11-19T01:47:38;9.60;99.90
12971;DHT22;6550;48.650;8.774;2023-11-19T01:50:07;10.60;99.90
12971;DHT22;6550;48.650;8.774;2023-11-19T01:52:36;9.70;99.90
12971;DHT22;6550;48.650;8.774;2023-11-19T01:55:04;9.60;99.90
12971;DHT22;6550;48.650;8.774;2023-11-19T01:57:32;9.70;99.90
12971;DHT22;6550;48.650;8.774;2023-11-19T02:00:04;9.60;99.90
12971;DHT22;6550;48.650;8.774;2023-11-19T02:02:32;9.70;99.90
12971;DHT22;6550;48.650;8.774;2023-11-19T02:05:04;9.70;99.90
12971;DHT22;6550;48.650;8.774;2023-11-19T02:07:31;9.70;99.90
12971;DHT22;6550;48.650;8.774;2023-11-19T02:10:03;9.70;99.90
12971;DHT22;6550;48.650;8.774;2023-11-19T02:12:40;9.70;99.90
12971;DHT22;6550;48.650;8.774;2023-11-19T02:15:13;10.40;99.90
12971;DHT22;6550;48.650;8.774;2023-11-19T02:17:40;9.70;99.90
12971;DHT22;6550;48.650;8.774;2023-11-19T02:20:08;9.70;99.90
12971;DHT22;6550;48.650;8.774;2023-11-19T02:22:41;9.70;99.90
12971;DHT22;6550;48.650;8.774;2023-11-19T02:25:17;9.70;99.90
12971;DHT22;6550;48.650;8.774;2023-11-19T02:27:57;9.70;99.90
12971;DHT22;6550;48.650;8.774;2023-11-19T02:30:25;9.60;99.90
12971;DHT22;6550;48.650;8.774;2023-11-19T02:32:59;9.60;99.90
12971;DHT22;6550;48.650;8.774;2023-11-19T02:35:30;10.00;99.90
12971;DHT22;6550;48.650;8.774;2023-11-19T02:38:00;9.80;99.90
12971;DHT22;6550;48.650;8.774;2023-11-19T02:40:27;9.90;99.90
12971;DHT22;6550;48.650;8.774;2023-11-19T02:42:54;10.20;99.90
12971;DHT22;6550;48.650;8.774;2023-11-19T02:45:23;9.90;99.90
12971;DHT22;6550;48.650;8.774;2023-11-19T02:47:50;9.70;99.90
12971;DHT22;6550;48.650;8.774;2023-11-19T02:50:18;9.80;99.90
12971;DHT22;6550;48.650;8.774;2023-11-19T02:52:53;9.80;99.90
12971;DHT22;6550;48.650;8.774;2023-11-19T02:55:26;10.10;99.90
12971;DHT22;6550;48.650;8.774;2023-11-19T02:57:55;10.00;99.90
12971;DHT22;6550;48.650;8.774;2023-11-19T03:00:23;9.80;99.90
12971;DHT22;6550;48.650;8.774;2023-11-19T03:03:03;9.80;99.90
12971;DHT22;6550;48.650;8.774;2023-11-19T03:05:46;10.20;99.90
12971;DHT22;6550;48.650;8.774;2023-11-19T03:08:15;9.80;99.90
12971;DHT22;6550;48.650;8.774;2023-11-19T03:10:47;10.70;99.90
12971;DHT22;6550;48.650;8.774;2023-11-19T03:13:15;9.80;99.90
12971;DHT22;6550;48.650;8.774;2023-11-19T03:15:46;10.60;99.90
12971;DHT22;6550;48.650;8.774;2023-11-19T03:18:15;9.80;99.90
12971;DHT22;6550;48.650;8.774;2023-11-19T03:20:46;9.80;99.90
12971;DHT22;6550;48.650;8.774;2023-11-19T03:23:13;9.80;99.90
12971;DHT22;6550;48.650;8.774;2023-11-19T03:25:40;9.70;99.90
12971;DHT22;6550;48.650;8.774;2023-11-19T03:28:09;9.70;99.90
12971;DHT22;6550;48.650;8.774;2023-11-19T03:30:38;9.80;99.90
12971;DHT22;6550;48.650;8.774;2023-11-19T03:33:05;9.80;99.90
12971;DHT22;6550;48.650;8.774;2023-11-19T03:35:37;9.90;99.90
12971;DHT22;6550;48.650;8.774;2023-11-19T03:38:06;9.90;99.90
12971;DHT22;6550;48.650;8.774;2023-11-19T03:40:33;9.80;99.90
12971;DHT22;6550;48.650;8.774;2023-11-19T03:43:02;9.90;99.90
12971;DHT22;6550;48.650;8.774;2023-11-19T03:45:30;10.00;99.90
12971;DHT22;6550;48.650;8.774;2023-11-19T03:48:00;10.00;99.90
12971;DHT22;6550;48.650;8.774;2023-11-19T03:50:31;10.30;99.90
12971;DHT22;6550;48.650;8.774;2023-11-19T03:53:01;10.20;99.90
12971;DHT22;6550;48.650;8.774;2023-11-19T03:55:29;10.00;99.90
12971;DHT22;6550;48.650;8.774;2023-11-19T03:57:59;10.50;99.90
12971;DHT22;6550;48.650;8.774;2023-11-19T04:00:26;10.10;99.90
12971;DHT22;6550;48.650;8.774;2023-11-19T04:02:58;9.90;99.90
12971;DHT22;6550;48.650;8.774;2023-11-19T04:05:25;10.00;99.90
12971;DHT22;6550;48.650;8.774;2023-11-19T04:07:52;10.90;99.90
12971;DHT22;6550;48.650;8.774;2023-11-19T04:10:18;10.00;99.90
12971;DHT22;6550;48.650;8.774;2023-11-19T04:12:47;10.20;99.90
12971;DHT22;6550;48.650;8.774;2023-11-19T04:15:16;10.10;99.90
12971;DHT22;6550;48.650;8.774;2023-11-19T04:17:43;10.10;99.90
12971;DHT22;6550;48.650;8.774;2023-11-19T04:20:11;10.70;99.90
12971;DHT22;6550;48.650;8.774;2023-11-19T04:22:40;10.00;99.90
12971;DHT22;6550;48.650;8.774;2023-11-19T04:25:07;10.00;99.90
12971;DHT22;6550;48.650;8.774;2023-11-19T04:27:37;10.00;99.90
12971;DHT22;6550;48.650;8.774;2023-11-19T04:30:04;10.10;99.90
12971;DHT22;6550;48.650;8.774;2023-11-19T04:32:31;10.00;99.90
12971;DHT22;6550;48.650;8.774;2023-11-19T04:35:03;11.10;99.90
12971;DHT22;6550;48.650;8.774;2023-11-19T04:37:30;10.10;99.90
12971;DHT22;6550;48.650;8.774;2023-11-19T04:39:57;10.40;99.90
12971;DHT22;6550;48.650;8.774;2023-11-19T04:42:23;10.40;99.90
12971;DHT22;6550;48.650;8.774;2023-11-19T04:44:50;10.20;99.90
12971;DHT22;6550;48.650;8.774;2023-11-19T04:47:20;10.60;99.90
12971;DHT22;6550;48.650;8.774;2023-11-19T04:49:47;10.80;99.90
12971;DHT22;6550;48.650;8.774;2023-11-19T04:52:13;10.30;99.90
12971;DHT22;6550;48.650;8.774;2023-11-19T04:54:41;10.30;99.90
12971;DHT22;6550;48.650;8.774;2023-11-19T04:57:11;10.20;99.90
12971;DHT22;6550;48.650;8.774;2023-11-19T04:59:40;10.00;99.90
12971;DHT22;6550;48.650;8.774;2023-11-19T05:02:08;10.30;99.90
12971;DHT22;6550;48.650;8.774;2023-11-19T05:04:41;10.90;99.90
12971;DHT22;6550;48.650;8.774;2023-11-19T05:07:09;10.30;99.90
12971;DHT22;6550;48.650;8.774;2023-11-19T05:09:38;10.20;99.90
12971;DHT22;6550;48.650;8.774;2023-11-19T05:12:07;10.40;99.90
12971;DHT22;6550;48.650;8.774;2023-11-19T05:14:38;10.20;99.90
12971;DHT22;6550;48.650;8.774;2023-11-19T05:17:05;10.20;99.90
12971;DHT22;6550;48.650;8.774;2023-11-19T05:19:32;11.10;99.90
12971;DHT22;6550;48.650;8.774;2023-11-19T05:21:58;11.10;99.90
12971;DHT22;6550;48.650;8.774;2023-11-19T05:24:28;11.00;99.90
12971;DHT22;6550;48.650;8.774;2023-11-19T05:26:55;10.50;99.90
12971;DHT22;6550;48.650;8.774;2023-11-19T05:29:23;11.80;99.90
12971;DHT22;6550;48.650;8.774;2023-11-19T05:31:50;10.50;99.90
12971;DHT22;6550;48.650;8.774;2023-11-19T05:34:16;11.20;99.90
12971;DHT22;6550;48.650;8.774;2023-11-19T05:36:45;10.40;99.90
12971;DHT22;6550;48.650;8.774;2023-11-19T05:39:12;11.00;99.90
12971;DHT22;6550;48.650;8.774;2023-11-19T05:41:42;10.50;99.90
12971;DHT22;6550;48.650;8.774;2023-11-19T05:44:09;10.80;99.90
12971;DHT22;6550;48.650;8.774;2023-11-19T05:46:35;10.50;99.90
12971;DHT22;6550;48.650;8.774;2023-11-19T05:49:10;10.40;99.90
12971;DHT22;6550;48.650;8.774;2023-11-19T05:51:42;10.40;99.90
12971;DHT22;6550;48.650;8.774;2023-11-19T05:54:10;10.60;99.90
12971;DHT22;6550;48.650;8.774;2023-11-19T05:56:37;11.00;99.90
12971;DHT22;6550;48.650;8.774;2023-11-19T05:59:04;11.40;99.90
12971;DHT22;6550;48.650;8.774;2023-11-19T06:01:41;11.10;99.90
12971;DHT22;6550;48.650;8.774;2023-11-19T06:04:08;11.00;99.90
12971;DHT22;6550;48.650;8.774;2023-11-19T06:06:38;10.50;99.90
12971;DHT22;6550;48.650;8.774;2023-11-19T06:09:05;10.40;99.90
12971;DHT22;6550;48.650;8.774;2023-11-19T06:11:35;10.50;99.90
12971;DHT22;6550;48.650;8.774;2023-11-19T06:14:05;10.50;99.90
12971;DHT22;6550;48.650;8.774;2023-11-19T06:16:32;10.50;99.90
12971;DHT22;6550;48.650;8.774;2023-11-19T06:19:06;11.40;99.90
12971;DHT22;6550;48.650;8.774;2023-11-19T06:21:33;10.30;99.90
12971;DHT22;6550;48.650;8.774;2023-11-19T06:23:59;10.60;99.90
12971;DHT22;6550;48.650;8.774;2023-11-19T06:26:27;10.40;99.90
12971;DHT22;6550;48.650;8.774;2023-11-19T06:28:54;10.60;99.90
12971;DHT22;6550;48.650;8.774;2023-11-19T06:31:22;10.50;99.90
12971;DHT22;6550;48.650;8.774;2023-11-19T06:33:52;10.90;99.90
12971;DHT22;6550;48.650;8.774;2023-11-19T06:36:19;10.50;99.90
12971;DHT22;6550;48.650;8.774;2023-11-19T06:38:48;11.70;99.90
12971;DHT22;6550;48.650;8.774;2023-11-19T06:41:15;10.60;99.90
12971;DHT22;6550;48.650;8.774;2023-11-19T06:43:44;11.10;99.90
12971;DHT22;6550;48.650;8.774;2023-11-19T06:46:17;11.00;99.90
12971;DHT22;6550;48.650;8.774;2023-11-19T06:48:44;11.00;99.90
12971;DHT22;6550;48.650;8.774;2023-11-19T06:51:12;11.20;99.90
12971;DHT22;6550;48.650;8.774;2023-11-19T06:53:38;11.00;99.90
12971;DHT22;6550;48.650;8.774;2023-11-19T06:56:21;11.20;99.90
12971;DHT22;6550;48.650;8.774;2023-11-19T06:58:52;11.90;99.90
12971;DHT22;6550;48.650;8.774;2023-11-19T07:01:20;11.20;99.90
12971;DHT22;6550;48.650;8.774;2023-11-19T07:03:47;10.60;99.90
12971;DHT22;6550;48.650;8.774;2023-11-19T07:06:18;11.20;99.90
12971;DHT22;6550;48.650;8.774;2023-11-19T07:09:01;10.80;99.90
12971;DHT22;6550;48.650;8.774;2023-11-19T07:11:37;10.70;99.90
12971;DHT22;6550;48.650;8.774;2023-11-19T07:14:06;10.80;99.90
12971;DHT22;6550;48.650;8.774;2023-11-19T07:16:34;11.20;99.90
12971;DHT22;6550;48.650;8.774;2023-11-19T07:19:01;10.80;99.90
12971;DHT22;6550;48.650;8.774;2023-11-19T07:21:31;10.80;99.90
12971;DHT22;6550;48.650;8.774;2023-11-19T07:23:57;11.10;99.90
12971;DHT22;6550;48.650;8.774;2023-11-19T07:26:25;10.90;99.90
12971;DHT22;6550;48.650;8.774;2023-11-19T07:28:54;12.20;99.90
12971;DHT22;6550;48.650;8.774;2023-11-19T07:31:24;11.00;99.90
12971;DHT22;6550;48.650;8.774;2023-11-19T07:33:56;11.90;99.90
12971;DHT22;6550;48.650;8.774;2023-11-19T07:36:23;11.10;99.90
12971;DHT22;6550;48.650;8.774;2023-11-19T07:38:50;11.80;99.90
12971;DHT22;6550;48.650;8.774;2023-11-19T07:41:17;11.70;99.90
12971;DHT22;6550;48.650;8.774;2023-11-19T07:43:44;11.30;99.90
12971;DHT22;6550;48.650;8.774;2023-11-19T07:46:13;11.20;99.90
12971;DHT22;6550;48.650;8.774;2023-11-19T07:48:40;11.40;99.90
12971;DHT22;6550;48.650;8.774;2023-11-19T07:51:11;11.30;99.90
12971;DHT22;6550;48.650;8.774;2023-11-19T07:53:40;11.50;99.90
12971;DHT22;6550;48.650;8.774;2023-11-19T07:56:10;12.20;99.90
12971;DHT22;6550;48.650;8.774;2023-11-19T07:58:39;11.20;99.90
12971;DHT22;6550;48.650;8.774;2023-11-19T08:01:06;11.30;99.90
12971;DHT22;6550;48.650;8.774;2023-11-19T08:03:33;11.30;99.90
12971;DHT22;6550;48.650;8.774;2023-11-19T08:06:06;11.90;99.90
12971;DHT22;6550;48.650;8.774;2023-11-19T08:08:36;11.30;99.90
12971;DHT22;6550;48.650;8.774;2023-11-19T08:11:05;11.50;99.90
12971;DHT22;6550;48.650;8.774;2023-11-19T08:13:34;11.40;99.90
12971;DHT22;6550;48.650;8.774;2023-11-19T08:16:00;11.30;99.90
12971;DHT22;6550;48.650;8.774;2023-11-19T08:18:28;11.60;99.90
12971;DHT22;6550;48.650;8.774;2023-11-19T08:20:54;12.20;99.90
12971;DHT22;6550;48.650;8.774;2023-11-19T08:23:23;12.90;99.90
12971;DHT22;6550;48.650;8.774;2023-11-19T08:25:52;12.60;99.90
12971;DHT22;6550;48.650;8.774;2023-11-19T08:28:19;11.50;99.90
12971;DHT22;6550;48.650;8.774;2023-11-19T08:30:48;11.60;99.90
12971;DHT22;6550;48.650;8.774;2023-11-19T08:33:15;13.10;99.90
12971;DHT22;6550;48.650;8.774;2023-11-19T08:35:44;12.40;99.90
12971;DHT22;6550;48.650;8.774;2023-11-19T08:38:11;12.40;99.90
12971;DHT22;6550;48.650;8.774;2023-11-19T08:40:43;12.10;99.90
12971;DHT22;6550;48.650;8.774;2023-11-19T08:43:09;11.90;99.90
12971;DHT22;6550;48.650;8.774;2023-11-19T08:45:36;12.20;99.90
12971;DHT22;6550;48.650;8.774;2023-11-19T08:48:06;12.80;99.90
12971;DHT22;6550;48.650;8.774;2023-11-19T08:50:33;12.60;99.90
12971;DHT22;6550;48.650;8.774;2023-11-19T08:52:59;12.70;99.90
12971;DHT22;6550;48.650;8.774;2023-11-19T08:55:26;13.00;99.90
12971;DHT22;6550;48.650;8.774;2023-11-19T08:57:53;13.90;99.90
12971;DHT22;6550;48.650;8.774;2023-11-19T09:00:20;14.20;99.90
12971;DHT22;6550;48.650;8.774;2023-11-19T09:02:47;14.40;99.90
12971;DHT22;6550;48.650;8.774;2023-11-19T09:05:16;13.50;99.90
12971;DHT22;6550;48.650;8.774;2023-11-19T09:07:43;13.80;99.90
12971;DHT22;6550;48.650;8.774;2023-11-19T09:10:10;14.10;99.90
12971;DHT22;6550;48.650;8.774;2023-11-19T09:12:39;13.90;99.90
12971;DHT22;6550;48.650;8.774;2023-11-19T09:15:06;14.10;99.90
12971;DHT22;6550;48.650;8.774;2023-11-19T09:17:33;14.20;99.90
12971;DHT22;6550;48.650;8.774;2023-11-19T09:20:02;14.60;99.90
12971;DHT22;6550;48.650;8.774;2023-11-19T09:22:31;14.30;99.90
12971;DHT22;6550;48.650;8.774;2023-11-19T09:25:00;14.70;99.90
12971;DHT22;6550;48.650;8.774;2023-11-19T09:27:27;14.80;99.90
12971;DHT22;6550;48.650;8.774;2023-11-19T09:29:55;14.60;99.90
12971;DHT22;6550;48.650;8.774;2023-11-19T09:32:24;14.30;99.90
12971;DHT22;6550;48.650;8.774;2023-11-19T09:34:54;14.20;99.90
12971;DHT22;6550;48.650;8.774;2023-11-19T09:37:21;14.60;99.90
12971;DHT22;6550;48.650;8.774;2023-11-19T09:39:50;14.20;99.90
12971;DHT22;6550;48.650;8.774;2023-11-19T09:42:17;14.60;99.90
12971;DHT22;6550;48.650;8.774;2023-11-19T09:44:45;14.10;99.90
12971;DHT22;6550;48.650;8.774;2023-11-19T09:47:14;15.50;99.90
12971;DHT22;6550;48.650;8.774;2023-11-19T09:49:41;14.10;99.90
12971;DHT22;6550;48.650;8.774;2023-11-19T09:52:11;13.90;99.90
12971;DHT22;6550;48.650;8.774;2023-11-19T09:54:38;13.80;99.90
12971;DHT22;6550;48.650;8.774;2023-11-19T09:57:07;13.90;99.90
12971;DHT22;6550;48.650;8.774;2023-11-19T09:59:37;14.00;99.90
12971;DHT22;6550;48.650;8.774;2023-11-19T10:02:06;14.30;99.90
12971;DHT22;6550;48.650;8.774;2023-11-19T10:04:35;14.00;99.90
12971;DHT22;6550;48.650;8.774;2023-11-19T10:09:31;14.00;99.90
12971;DHT22;6550;48.650;8.774;2023-11-19T10:11:58;14.30;99.90
12971;DHT22;6550;48.650;8.774;2023-11-19T10:14:28;14.10;99.90
12971;DHT22;6550;48.650;8.774;2023-11-19T10:16:56;14.60;99.90
12971;DHT22;6550;48.650;8.774;2023-11-19T10:19:23;14.50;99.90
12971;DHT22;6550;48.650;8.774;2023-11-19T10:21:54;14.10;99.90
12971;DHT22;6550;48.650;8.774;2023-11-19T10:24:32;14.40;99.90
12971;DHT22;6550;48.650;8.774;2023-11-19T10:27:04;15.00;99.90
12971;DHT22;6550;48.650;8.774;2023-11-19T10:29:38;15.00;99.90
12971;DHT22;6550;48.650;8.774;2023-11-19T10:32:07;16.00;99.90
12971;DHT22;6550;48.650;8.774;2023-11-19T10:34:58;15.00;99.90
12971;DHT22;6550;48.650;8.774;2023-11-19T10:37:31;14.00;99.90
12971;DHT22;6550;48.650;8.774;2023-11-19T10:40:01;14.80;99.90
12971;DHT22;6550;48.650;8.774;2023-11-19T10:42:34;14.70;99.90
12971;DHT22;6550;48.650;8.774;2023-11-19T10:45:03;14.20;99.90
12971;DHT22;6550;48.650;8.774;2023-11-19T10:47:34;14.00;99.90
12971;DHT22;6550;48.650;8.774;2023-11-19T10:52:33;14.10;99.90
12971;DHT22;6550;48.650;8.774;2023-11-19T10:55:04;14.10;99.90
12971;DHT22;6550;48.650;8.774;2023-11-19T10:57:34;14.10;99.90
12971;DHT22;6550;48.650;8.774;2023-11-19T11:00:05;14.50;99.90
12971;DHT22;6550;48.650;8.774;2023-11-19T11:02:41;13.70;99.90
12971;DHT22;6550;48.650;8.774;2023-11-19T11:05:14;14.20;99.90
12971;DHT22;6550;48.650;8.774;2023-11-19T11:07:44;14.10;99.90
12971;DHT22;6550;48.650;8.774;2023-11-19T11:10:14;14.20;99.90
12971;DHT22;6550;48.650;8.774;2023-11-19T11:12:48;14.10;99.90
12971;DHT22;6550;48.650;8.774;2023-11-19T11:15:18;14.70;99.90
12971;DHT22;6550;48.650;8.774;2023-11-19T11:17:46;14.40;99.90
12971;DHT22;6550;48.650;8.774;2023-11-19T11:20:16;14.60;99.90
12971;DHT22;6550;48.650;8.774;2023-11-19T11:22:54;14.90;99.90
12971;DHT22;6550;48.650;8.774;2023-11-19T11:28:58;14.60;99.90
12971;DHT22;6550;48.650;8.774;2023-11-19T11:34:16;14.30;99.90
12971;DHT22;6550;48.650;8.774;2023-11-19T11:39:40;14.40;99.90
12971;DHT22;6550;48.650;8.774;2023-11-19T11:50:16;14.40;99.90
12971;DHT22;6550;48.650;8.774;2023-11-19T11:55:57;15.30;99.90
12971;DHT22;6550;48.650;8.774;2023-11-19T11:58:29;15.20;99.90
12971;DHT22;6550;48.650;8.774;2023-11-19T12:00:59;14.60;99.90
12971;DHT22;6550;48.650;8.774;2023-11-19T12:03:28;14.70;99.90
12971;DHT22;6550;48.650;8.774;2023-11-19T12:05:58;15.30;99.90
12971;DHT22;6550;48.650;8.774;2023-11-19T12:08:29;14.70;99.90
12971;DHT22;6550;48.650;8.774;2023-11-19T12:10:57;15.50;99.90
12971;DHT22;6550;48.650;8.774;2023-11-19T12:13:53;15.00;99.90
12971;DHT22;6550;48.650;8.774;2023-11-19T12:16:22;14.90;99.90
12971;DHT22;6550;48.650;8.774;2023-11-19T12:18:53;15.30;99.90
12971;DHT22;6550;48.650;8.774;2023-11-19T12:21:30;15.30;99.90
12971;DHT22;6550;48.650;8.774;2023-11-19T12:23:58;15.20;99.90
12971;DHT22;6550;48.650;8.774;2023-11-19T12:26:33;15.00;99.90
12971;DHT22;6550;48.650;8.774;2023-11-19T12:29:00;15.00;99.90
12971;DHT22;6550;48.650;8.774;2023-11-19T12:31:33;15.30;99.90
12971;DHT22;6550;48.650;8.774;2023-11-19T12:34:06;14.90;99.90
12971;DHT22;6550;48.650;8.774;2023-11-19T12:36:35;15.10;99.90
12971;DHT22;6550;48.650;8.774;2023-11-19T12:39:02;16.50;99.90
12971;DHT22;6550;48.650;8.774;2023-11-19T12:41:30;14.90;99.90
12971;DHT22;6550;48.650;8.774;2023-11-19T12:44:10;15.50;99.90
12971;DHT22;6550;48.650;8.774;2023-11-19T12:46:38;14.90;99.90
12971;DHT22;6550;48.650;8.774;2023-11-19T12:49:05;14.80;99.90
12971;DHT22;6550;48.650;8.774;2023-11-19T12:51:34;15.20;99.90
12971;DHT22;6550;48.650;8.774;2023-11-19T12:54:06;14.80;99.90
12971;DHT22;6550;48.650;8.774;2023-11-19T12:56:33;14.90;99.90
12971;DHT22;6550;48.650;8.774;2023-11-19T12:59:12;15.50;99.90
12971;DHT22;6550;48.650;8.774;2023-11-19T13:01:39;14.90;99.90
12971;DHT22;6550;48.650;8.774;2023-11-19T13:04:18;15.10;99.90
12971;DHT22;6550;48.650;8.774;2023-11-19T13:06:47;15.80;99.90
12971;DHT22;6550;48.650;8.774;2023-11-19T13:09:33;15.20;99.90
12971;DHT22;6550;48.650;8.774;2023-11-19T13:12:15;15.20;99.90
12971;DHT22;6550;48.650;8.774;2023-11-19T13:14:45;15.10;99.90
12971;DHT22;6550;48.650;8.774;2023-11-19T13:17:16;14.70;99.90
12971;DHT22;6550;48.650;8.774;2023-11-19T13:19:43;15.10;99.90
12971;DHT22;6550;48.650;8.774;2023-11-19T13:24:43;15.70;99.90
12971;DHT22;6550;48.650;8.774;2023-11-19T13:27:13;15.00;99.90
12971;DHT22;6550;48.650;8.774;2023-11-19T13:29:40;15.00;99.90
12971;DHT22;6550;48.650;8.774;2023-11-19T13:32:09;14.50;99.90
12971;DHT22;6550;48.650;8.774;2023-11-19T13:34:36;15.00;99.90
12971;DHT22;6550;48.650;8.774;2023-11-19T13:37:03;14.40;99.90
12971;DHT22;6550;48.650;8.774;2023-11-19T13:39:30;14.30;99.90
12971;DHT22;6550;48.650;8.774;2023-11-19T13:42:00;14.30;99.90
12971;DHT22;6550;48.650;8.774;2023-11-19T13:44:30;14.30;99.90
12971;DHT22;6550;48.650;8.774;2023-11-19T13:49:29;14.30;99.90
12971;DHT22;6550;48.650;8.774;2023-11-19T13:51:56;14.20;99.90
12971;DHT22;6550;48.650;8.774;2023-11-19T13:54:23;14.10;99.90
12971;DHT22;6550;48.650;8.774;2023-11-19T13:56:50;14.90;99.90
12971;DHT22;6550;48.650;8.774;2023-11-19T13:59:21;14.60;99.90
12971;DHT22;6550;48.650;8.774;2023-11-19T14:01:47;14.10;99.90
12971;DHT22;6550;48.650;8.774;2023-11-19T14:04:14;14.60;99.90
12971;DHT22;6550;48.650;8.774;2023-11-19T14:06:45;14.00;99.90
12971;DHT22;6550;48.650;8.774;2023-11-19T14:09:11;14.80;99.90
12971;DHT22;6550;48.650;8.774;2023-11-19T14:11:39;14.40;99.90
12971;DHT22;6550;48.650;8.774;2023-11-19T14:14:07;13.90;99.90
12971;DHT22;6550;48.650;8.774;2023-11-19T14:16:36;13.90;99.90
12971;DHT22;6550;48.650;8.774;2023-11-19T14:19:04;14.10;99.90
12971;DHT22;6550;48.650;8.774;2023-11-19T14:21:34;14.50;99.90
12971;DHT22;6550;48.650;8.774;2023-11-19T14:24:03;14.00;99.90
12971;DHT22;6550;48.650;8.774;2023-11-19T14:26:32;13.80;99.90
12971;DHT22;6550;48.650;8.774;2023-11-19T14:29:01;13.90;99.90
12971;DHT22;6550;48.650;8.774;2023-11-19T14:31:31;13.70;99.90
12971;DHT22;6550;48.650;8.774;2023-11-19T14:33:58;13.80;99.90
12971;DHT22;6550;48.650;8.774;2023-11-19T14:36:26;13.60;99.90
12971;DHT22;6550;48.650;8.774;2023-11-19T14:38:53;14.80;99.90
12971;DHT22;6550;48.650;8.774;2023-11-19T14:41:20;13.60;99.90
12971;DHT22;6550;48.650;8.774;2023-11-19T14:43:49;13.40;99.90
12971;DHT22;6550;48.650;8.774;2023-11-19T14:46:16;14.50;99.90
12971;DHT22;6550;48.650;8.774;2023-11-19T14:48:45;15.00;99.90
12971;DHT22;6550;48.650;8.774;2023-11-19T14:51:14;13.90;99.90
12971;DHT22;6550;48.650;8.774;2023-11-19T14:53:41;13.10;99.90
12971;DHT22;6550;48.650;8.774;2023-11-19T14:56:10;13.30;99.90
12971;DHT22;6550;48.650;8.774;2023-11-19T14:58:39;14.90;99.90
12971;DHT22;6550;48.650;8.774;2023-11-19T15:01:09;14.70;99.90
12971;DHT22;6550;48.650;8.774;2023-11-19T15:03:40;13.40;99.90
12971;DHT22;6550;48.650;8.774;2023-11-19T15:06:09;13.50;99.90
12971;DHT22;6550;48.650;8.774;2023-11-19T15:08:38;13.20;99.90
12971;DHT22;6550;48.650;8.774;2023-11-19T15:11:08;13.20;99.90
12971;DHT22;6550;48.650;8.774;2023-11-19T15:13:40;14.50;99.90
12971;DHT22;6550;48.650;8.774;2023-11-19T15:16:09;13.30;99.90
12971;DHT22;6550;48.650;8.774;2023-11-19T15:18:39;13.90;99.90
12971;DHT22;6550;48.650;8.774;2023-11-19T15:21:06;13.50;99.90
12971;DHT22;6550;48.650;8.774;2023-11-19T15:23:32;13.00;99.90
12971;DHT22;6550;48.650;8.774;2023-11-19T15:26:00;13.30;99.90
12971;DHT22;6550;48.650;8.774;2023-11-19T15:28:26;12.80;99.90
12971;DHT22;6550;48.650;8.774;2023-11-19T15:33:23;12.80;99.90
12971;DHT22;6550;48.650;8.774;2023-11-19T15:35:50;13.50;99.90
12971;DHT22;6550;48.650;8.774;2023-11-19T15:38:17;13.50;99.90
12971;DHT22;6550;48.650;8.774;2023-11-19T15:40:43;12.60;99.90
12971;DHT22;6550;48.650;8.774;2023-11-19T15:43:10;13.20;99.90
12971;DHT22;6550;48.650;8.774;2023-11-19T15:45:37;12.60;99.90
12971;DHT22;6550;48.650;8.774;2023-11-19T15:48:06;12.50;99.90
12971;DHT22;6550;48.650;8.774;2023-11-19T15:50:33;12.90;99.90
12971;DHT22;6550;48.650;8.774;2023-11-19T15:53:00;13.90;99.90
12971;DHT22;6550;48.650;8.774;2023-11-19T15:55:31;13.30;99.90
12971;DHT22;6550;48.650;8.774;2023-11-19T15:58:01;12.50;99.90
12971;DHT22;6550;48.650;8.774;2023-11-19T16:00:28;13.30;99.90
12971;DHT22;6550;48.650;8.774;2023-11-19T16:02:55;12.30;99.90
12971;DHT22;6550;48.650;8.774;2023-11-19T16:05:23;12.90;99.90
12971;DHT22;6550;48.650;8.774;2023-11-19T16:07:53;14.70;99.90
12971;DHT22;6550;48.650;8.774;2023-11-19T16:10:20;12.20;99.90
12971;DHT22;6550;48.650;8.774;2023-11-19T16:12:51;12.20;99.90
12971;DHT22;6550;48.650;8.774;2023-11-19T16:15:18;12.20;99.90
12971;DHT22;6550;48.650;8.774;2023-11-19T16:17:49;12.20;99.90
12971;DHT22;6550;48.650;8.774;2023-11-19T16:20:19;12.50;99.90
12971;DHT22;6550;48.650;8.774;2023-11-19T16:22:45;12.20;99.90
12971;DHT22;6550;48.650;8.774;2023-11-19T16:25:12;12.60;99.90
12971;DHT22;6550;48.650;8.774;2023-11-19T16:27:41;12.10;99.90
12971;DHT22;6550;48.650;8.774;2023-11-19T16:30:09;12.60;99.90
12971;DHT22;6550;48.650;8.774;2023-11-19T16:32:56;12.00;99.90
12971;DHT22;6550;48.650;8.774;2023-11-19T16:35:25;11.90;99.90